Time;durP1;ratioP1;P1;durP2;ratioP2;P2;SDS_P1;SDS_P2;PMS_P1;PMS_P2;Temp;Humidity;BMP_temperature;BMP_pressure;BME280_temperature;BME280_humidity;BME280_pressure;Samples;Min_cycle;Max_cycle;Signal;HPM_P1;HPM_P2
2023/03/31 00:02:15;;;;;;;13.75;3.50;;;12.60;99.90;;;;;;4967585;28;98502;-75
2023/03/31 00:04:44;;;;;;;17.75;3.35;;;12.60;99.90;;;;;;4953138;28;98511;-74
2023/03/31 00:07:15;;;;;;;18.63;4.07;;;12.60;99.90;;;;;;4950882;28;102920;-74
2023/03/31 00:09:44;;;;;;;19.42;3.55;;;12.60;99.90;;;;;;4951148;28;103031;-75
2023/03/31 00:12:14;;;;;;;18.98;4.25;;;12.60;99.90;;;;;;4968030;28;98548;-75
2023/03/31 00:14:42;;;;;;;15.13;3.72;;;12.60;99.90;;;;;;4951503;28;98580;-74
2023/03/31 00:17:10;;;;;;;15.23;3.50;;;12.60;99.90;;;;;;4952406;28;101042;-74
2023/03/31 00:19:38;;;;;;;19.95;4.47;;;12.60;99.90;;;;;;4952314;28;99025;-75
2023/03/31 00:22:06;;;;;;;17.50;3.75;;;12.60;99.90;;;;;;4951795;28;99169;-74
2023/03/31 00:24:33;;;;;;;20.35;3.67;;;12.50;99.90;;;;;;4951384;28;97810;-75
2023/03/31 00:27:02;;;;;;;17.67;3.75;;;12.50;99.90;;;;;;4952411;28;99252;-74
2023/03/31 00:29:30;;;;;;;12.82;3.65;;;12.40;99.90;;;;;;4950845;28;101814;-75
2023/03/31 00:31:58;;;;;;;21.00;3.30;;;12.30;99.90;;;;;;4951787;28;101058;-74
2023/03/31 00:34:26;;;;;;;18.00;3.38;;;12.30;99.90;;;;;;4935568;28;98629;-75
2023/03/31 00:36:55;;;;;;;17.02;3.20;;;12.20;99.90;;;;;;4934697;28;101797;-75
2023/03/31 00:39:28;;;;;;;17.58;4.00;;;12.10;99.90;;;;;;4951005;28;99118;-75
2023/03/31 00:41:55;;;;;;;15.73;3.45;;;12.00;99.90;;;;;;4952719;28;98530;-75
2023/03/31 00:44:24;;;;;;;17.63;3.45;;;11.90;99.90;;;;;;4951292;28;99082;-75
2023/03/31 00:47:14;;;;;;;17.75;3.88;;;11.80;99.90;;;;;;4950684;28;101903;-74
2023/03/31 00:49:51;;;;;;;21.17;4.47;;;11.80;99.90;;;;;;4954069;28;101164;-74
2023/03/31 00:52:23;;;;;;;13.10;3.60;;;11.70;99.90;;;;;;4971060;28;99554;-75
2023/03/31 00:54:56;;;;;;;18.63;3.92;;;11.70;99.90;;;;;;4954497;28;98629;-76
2023/03/31 00:57:24;;;;;;;16.75;4.05;;;11.60;99.90;;;;;;4969768;28;102576;-76
2023/03/31 00:59:56;;;;;;;20.00;3.85;;;11.50;99.90;;;;;;4954000;28;102551;-76
2023/03/31 01:02:24;;;;;;;17.48;3.53;;;11.50;99.90;;;;;;4954164;28;98610;-76
2023/03/31 01:04:58;;;;;;;20.10;3.50;;;11.40;99.90;;;;;;4970653;28;98560;-76
2023/03/31 01:07:32;;;;;;;;;;;11.40;99.90;;;;;;4937914;28;101913;-75
2023/03/31 01:10:03;;;;;;;22.40;3.00;;;11.30;99.90;;;;;;4956654;28;99208;-74
2023/03/31 01:12:32;;;;;;;18.95;3.63;;;11.20;99.90;;;;;;4954037;28;98727;-75
2023/03/31 01:15:00;;;;;;;12.98;3.60;;;11.20;99.90;;;;;;4954613;28;98274;-74
2023/03/31 01:17:27;;;;;;;17.40;3.55;;;11.20;99.90;;;;;;4953553;28;99434;-74
2023/03/31 01:20:28;;;;;;;19.17;3.58;;;11.10;99.90;;;;;;4954974;28;99120;-74
2023/03/31 01:23:15;;;;;;;16.20;3.40;;;11.10;99.90;;;;;;4954879;28;99244;-75
2023/03/31 01:26:37;;;;;;;13.80;3.78;;;11.00;99.90;;;;;;4953779;28;98499;-74
2023/03/31 01:29:33;;;;;;;14.73;2.88;;;11.00;99.90;;;;;;4923319;28;99576;-75
2023/03/31 01:32:10;;;;;;;18.23;3.58;;;10.90;99.90;;;;;;4934888;28;101770;-74
2023/03/31 01:35:04;;;;;;;13.63;2.75;;;10.80;99.90;;;;;;4955393;28;98956;-77
2023/03/31 01:37:55;;;;;;;18.95;3.28;;;10.80;99.90;;;;;;4953590;28;99000;-74
2023/03/31 01:40:45;;;;;;;15.63;4.57;;;10.80;99.90;;;;;;4953253;28;101843;-74
2023/03/31 01:43:22;;;;;;;19.45;3.45;;;10.70;99.90;;;;;;4943560;28;101393;-75
2023/03/31 01:46:12;;;;;;;14.70;2.92;;;10.70;99.90;;;;;;4969694;28;98553;-75
2023/03/31 01:49:01;;;;;;;19.83;3.28;;;10.70;99.90;;;;;;4945790;28;98605;-75
2023/03/31 01:51:59;;;;;;;18.65;3.92;;;10.60;99.90;;;;;;4952859;28;102544;-75
2023/03/31 01:54:32;;;;;;;18.90;4.13;;;10.60;99.90;;;;;;4953273;28;102331;-75
2023/03/31 01:57:17;;;;;;;18.90;3.78;;;10.50;99.90;;;;;;4953704;28;98581;-75
2023/03/31 02:00:05;;;;;;;12.68;2.78;;;10.60;99.90;;;;;;4953309;28;99122;-75
2023/03/31 02:02:47;;;;;;;13.02;3.50;;;10.60;99.90;;;;;;4953204;28;99000;-75
2023/03/31 02:05:21;;;;;;;18.92;3.70;;;10.60;99.90;;;;;;4953153;28;101322;-75
2023/03/31 02:07:51;;;;;;;;;;;10.60;99.90;;;;;;4953738;28;98584;-75
2023/03/31 02:10:20;;;;;;;15.40;3.70;;;10.60;99.90;;;;;;4956234;28;97800;-75
2023/03/31 02:12:50;;;;;;;19.50;3.88;;;10.60;99.90;;;;;;4969009;28;102080;-75
2023/03/31 02:15:25;;;;;;;15.40;3.67;;;10.70;99.90;;;;;;4968923;28;101601;-75
2023/03/31 02:17:57;;;;;;;16.98;4.10;;;10.70;99.90;;;;;;4954258;28;99270;-75
2023/03/31 02:20:26;;;;;;;12.90;4.30;;;10.70;99.90;;;;;;4969401;28;98733;-75
2023/03/31 02:22:55;;;;;;;11.07;4.00;;;10.80;99.90;;;;;;4952355;28;101895;-75
2023/03/31 02:25:30;;;;;;;13.65;4.80;;;10.80;99.90;;;;;;4936351;28;101609;-75
2023/03/31 02:28:07;;;;;;;17.55;4.65;;;10.80;99.90;;;;;;4952985;28;98684;-75
2023/03/31 02:30:50;;;;;;;14.82;4.88;;;10.90;99.90;;;;;;4953096;28;99001;-75
2023/03/31 02:33:18;;;;;;;10.25;4.88;;;10.90;99.90;;;;;;4953169;28;99354;-76
2023/03/31 02:35:45;;;;;;;18.48;5.07;;;10.90;99.90;;;;;;4953975;28;98755;-75
2023/03/31 02:38:12;;;;;;;10.18;4.63;;;10.90;99.90;;;;;;4952762;28;98718;-75
2023/03/31 02:40:39;;;;;;;12.73;4.80;;;10.90;99.90;;;;;;4969167;28;98609;-75
2023/03/31 02:43:06;;;;;;;12.25;4.20;;;10.90;99.90;;;;;;4951876;28;101508;-75
2023/03/31 02:45:39;;;;;;;15.05;4.90;;;10.90;99.90;;;;;;4952426;28;102378;-75
2023/03/31 02:48:16;;;;;;;14.18;5.07;;;10.90;99.90;;;;;;4952739;28;99390;-75
2023/03/31 02:51:06;;;;;;;13.05;4.50;;;10.90;99.90;;;;;;4953792;28;98542;-75
2023/03/31 02:53:34;;;;;;;11.95;4.35;;;10.90;99.90;;;;;;4952427;28;101814;-75
2023/03/31 02:56:15;;;;;;;16.90;5.40;;;10.90;99.90;;;;;;4951970;28;101359;-76
2023/03/31 02:58:51;;;;;;;12.77;4.78;;;11.00;99.90;;;;;;4953915;28;98530;-75
2023/03/31 03:01:30;;;;;;;15.93;4.80;;;11.00;99.90;;;;;;4953043;28;98238;-76
2023/03/31 03:04:15;;;;;;;13.68;4.65;;;11.10;99.90;;;;;;4951828;28;101905;-75
2023/03/31 03:07:16;;;;;;;17.27;4.25;;;11.10;99.90;;;;;;4951821;28;101874;-76
2023/03/31 03:10:15;;;;;;;13.98;4.40;;;11.20;99.90;;;;;;4951693;28;99412;-75
2023/03/31 03:13:08;;;;;;;15.20;4.75;;;11.20;99.90;;;;;;4949609;28;99003;-75
2023/03/31 03:15:45;;;;;;;8.45;3.92;;;11.20;99.90;;;;;;4968360;28;98808;-75
2023/03/31 03:18:12;;;;;;;13.20;4.07;;;11.10;99.90;;;;;;4952039;28;99004;-76
2023/03/31 03:20:41;;;;;;;12.27;4.18;;;11.10;99.90;;;;;;4953742;28;98451;-76
2023/03/31 03:23:08;;;;;;;13.15;3.88;;;11.20;99.90;;;;;;4952214;28;98616;-76
2023/03/31 03:25:36;;;;;;;11.45;3.70;;;11.20;99.90;;;;;;4953178;28;99331;-75
2023/03/31 03:28:03;;;;;;;10.52;4.13;;;11.20;99.90;;;;;;4952468;28;111489;-76
2023/03/31 03:30:31;;;;;;;14.05;3.90;;;11.20;99.90;;;;;;4952496;28;98620;-75
2023/03/31 03:32:58;;;;;;;10.30;3.63;;;11.20;99.90;;;;;;4952926;28;99069;-75
2023/03/31 03:35:25;;;;;;;10.98;3.78;;;11.20;99.90;;;;;;4967776;28;100506;-76
2023/03/31 03:37:52;;;;;;;8.02;3.30;;;11.20;99.90;;;;;;4952837;28;99888;-76
2023/03/31 03:40:19;;;;;;;9.68;3.55;;;11.30;99.90;;;;;;4935578;28;98524;-75
2023/03/31 03:42:46;;;;;;;11.82;3.65;;;11.30;99.90;;;;;;4952992;28;98536;-75
2023/03/31 03:45:13;;;;;;;7.97;3.05;;;11.30;99.90;;;;;;4968107;28;99644;-76
2023/03/31 03:47:40;;;;;;;11.00;4.68;;;11.30;99.90;;;;;;4951642;28;100084;-76
2023/03/31 03:50:07;;;;;;;7.88;3.90;;;11.30;99.90;;;;;;4968099;28;98536;-76
2023/03/31 03:52:34;;;;;;;11.00;3.40;;;11.40;99.90;;;;;;4952250;28;98291;-75
2023/03/31 03:55:01;;;;;;;9.23;3.42;;;11.40;99.90;;;;;;4967590;28;99234;-75
2023/03/31 03:57:28;;;;;;;10.70;3.00;;;11.40;99.90;;;;;;4952750;28;99096;-76
2023/03/31 03:59:55;;;;;;;9.55;3.25;;;11.50;99.90;;;;;;4935464;28;99255;-76
2023/03/31 04:02:22;;;;;;;7.07;3.50;;;11.50;99.90;;;;;;4953009;28;99090;-75
2023/03/31 04:04:51;;;;;;;6.80;3.20;;;11.60;99.90;;;;;;4952493;28;99236;-75
2023/03/31 04:07:18;;;;;;;13.07;3.83;;;11.60;99.90;;;;;;4951649;28;99322;-76
2023/03/31 04:09:45;;;;;;;11.20;3.78;;;11.60;99.90;;;;;;4951725;28;98522;-76
2023/03/31 04:12:12;;;;;;;11.27;3.78;;;11.60;99.90;;;;;;4951585;28;98579;-76
2023/03/31 04:14:39;;;;;;;8.50;3.47;;;11.60;99.90;;;;;;4951352;28;99306;-75
2023/03/31 04:17:06;;;;;;;8.20;3.90;;;11.60;99.90;;;;;;4952715;28;98731;-76
2023/03/31 04:19:33;;;;;;;8.75;4.15;;;11.70;99.90;;;;;;4968098;28;98681;-76
2023/03/31 04:22:01;;;;;;;9.30;3.85;;;11.70;99.90;;;;;;4952809;28;98535;-75
2023/03/31 04:24:31;;;;;;;7.97;3.70;;;11.60;99.90;;;;;;4955224;28;100353;-75
2023/03/31 04:27:01;;;;;;;10.77;4.10;;;11.70;99.90;;;;;;4970968;28;99884;-76
2023/03/31 04:29:32;;;;;;;11.75;3.58;;;11.70;99.90;;;;;;4955712;28;98882;-75
2023/03/31 04:31:59;;;;;;;6.35;3.40;;;11.70;99.90;;;;;;4954356;28;98592;-75
2023/03/31 04:34:33;;;;;;;13.02;4.10;;;11.70;99.90;;;;;;4971026;28;99061;-76
2023/03/31 04:37:01;;;;;;;8.85;3.60;;;11.70;99.90;;;;;;4955702;28;99128;-76
2023/03/31 04:39:29;;;;;;;8.50;3.80;;;11.70;99.90;;;;;;4954364;28;98527;-76
2023/03/31 04:41:58;;;;;;;7.47;3.40;;;11.70;99.90;;;;;;4956250;28;97820;-76
2023/03/31 04:44:26;;;;;;;7.82;3.88;;;11.70;99.90;;;;;;4955556;28;99436;-75
2023/03/31 04:46:53;;;;;;;7.32;3.15;;;11.70;99.90;;;;;;4970528;28;99193;-76
2023/03/31 04:49:21;;;;;;;7.47;3.58;;;11.70;99.90;;;;;;4955593;28;99348;-75
2023/03/31 04:51:48;;;;;;;6.20;3.63;;;11.70;99.90;;;;;;4938384;28;99242;-76
2023/03/31 04:54:15;;;;;;;10.50;3.35;;;11.70;99.90;;;;;;4970478;28;99500;-75
2023/03/31 04:56:42;;;;;;;10.00;4.30;;;11.60;99.90;;;;;;4970502;28;99093;-75
2023/03/31 04:59:09;;;;;;;7.40;3.20;;;11.70;99.90;;;;;;4955736;28;98451;-75
2023/03/31 05:01:37;;;;;;;7.10;3.63;;;11.70;99.90;;;;;;4970680;28;98734;-76
2023/03/31 05:04:04;;;;;;;7.30;3.45;;;11.70;99.90;;;;;;4954929;28;99339;-75
2023/03/31 05:06:32;;;;;;;8.10;4.32;;;11.70;99.90;;;;;;4970729;28;99095;-76
2023/03/31 05:08:59;;;;;;;8.07;4.07;;;11.70;99.90;;;;;;4954253;28;98518;-75
2023/03/31 05:11:26;;;;;;;10.63;3.95;;;11.70;99.90;;;;;;4954386;28;98578;-76
2023/03/31 05:13:53;;;;;;;7.45;3.70;;;11.70;99.90;;;;;;4937166;28;101097;-75
2023/03/31 05:16:20;;;;;;;8.65;3.60;;;11.70;99.90;;;;;;4955074;28;100457;-76
2023/03/31 05:18:47;;;;;;;7.60;4.00;;;11.60;99.90;;;;;;4954081;28;98489;-75
2023/03/31 05:21:20;;;;;;;9.43;4.20;;;11.60;99.90;;;;;;4955097;28;98620;-76
2023/03/31 05:23:47;;;;;;;7.82;3.78;;;11.70;99.90;;;;;;4953529;28;102214;-75
2023/03/31 05:26:15;;;;;;;9.13;4.00;;;11.60;99.90;;;;;;4969724;28;99043;-76
2023/03/31 05:28:42;;;;;;;5.55;3.42;;;11.60;99.90;;;;;;4970410;28;98637;-76
2023/03/31 05:31:11;;;;;;;8.65;3.70;;;11.60;99.90;;;;;;4955043;28;97779;-76
2023/03/31 05:33:40;;;;;;;6.63;3.40;;;11.60;99.90;;;;;;4952671;28;101808;-76
2023/03/31 05:36:09;;;;;;;12.52;4.20;;;11.60;99.90;;;;;;4969408;28;98988;-76
2023/03/31 05:38:37;;;;;;;7.68;4.05;;;11.60;99.90;;;;;;4937233;28;99213;-76
2023/03/31 05:41:05;;;;;;;9.20;4.10;;;11.60;99.90;;;;;;4969948;28;98543;-76
2023/03/31 05:43:32;;;;;;;8.43;4.53;;;11.60;99.90;;;;;;4954279;28;99294;-76
2023/03/31 05:45:59;;;;;;;7.63;4.60;;;11.50;99.90;;;;;;4954711;28;99010;-76
2023/03/31 05:48:26;;;;;;;13.00;4.75;;;11.50;99.90;;;;;;4954883;28;98425;-76
2023/03/31 05:51:00;;;;;;;9.00;3.97;;;11.60;99.90;;;;;;4954638;28;98503;-76
2023/03/31 05:53:28;;;;;;;9.80;4.68;;;11.60;99.90;;;;;;4953046;28;101930;-76
2023/03/31 05:56:00;;;;;;;10.40;3.90;;;11.60;99.90;;;;;;4953693;28;99039;-76
2023/03/31 05:58:28;;;;;;;6.05;3.40;;;11.60;99.90;;;;;;4953304;28;98546;-76
2023/03/31 06:01:06;;;;;;;10.32;4.50;;;11.70;99.90;;;;;;4969692;28;98655;-76
2023/03/31 06:03:35;;;;;;;9.20;4.20;;;11.70;99.90;;;;;;4954201;28;99986;-76
2023/03/31 06:06:04;;;;;;;11.07;4.68;;;11.70;99.90;;;;;;4969138;28;99777;-76
2023/03/31 06:08:31;;;;;;;6.05;4.60;;;11.70;99.90;;;;;;4953270;28;98679;-76
2023/03/31 06:10:58;;;;;;;8.52;4.40;;;11.70;99.90;;;;;;4954726;28;98570;-76
2023/03/31 06:13:25;;;;;;;10.25;3.92;;;11.70;99.90;;;;;;4968733;28;100483;-76
2023/03/31 06:15:57;;;;;;;9.63;3.80;;;11.70;99.90;;;;;;4954193;28;98814;-76
2023/03/31 06:18:27;;;;;;;9.65;4.57;;;11.80;99.90;;;;;;4969195;28;99080;-76
2023/03/31 06:20:55;;;;;;;11.45;4.57;;;11.80;99.90;;;;;;4969730;28;97768;-76
2023/03/31 06:23:23;;;;;;;8.68;4.30;;;11.80;99.90;;;;;;4953550;28;99487;-76
2023/03/31 06:25:50;;;;;;;10.63;4.25;;;11.80;99.90;;;;;;4953975;28;98978;-76
2023/03/31 06:28:19;;;;;;;6.97;3.72;;;11.80;99.90;;;;;;4953924;28;99707;-77
2023/03/31 06:30:46;;;;;;;7.13;4.53;;;11.90;99.90;;;;;;4954207;28;98535;-76
2023/03/31 06:33:13;;;;;;;7.90;3.90;;;11.90;99.90;;;;;;4968647;28;99322;-76
2023/03/31 06:35:40;;;;;;;7.53;4.35;;;11.80;99.90;;;;;;4952617;28;99112;-76
2023/03/31 06:38:07;;;;;;;8.57;4.20;;;11.80;99.90;;;;;;4969227;28;98573;-76
2023/03/31 06:40:35;;;;;;;12.93;4.25;;;11.80;99.90;;;;;;4952486;28;98648;-76
2023/03/31 06:43:02;;;;;;;8.50;4.40;;;11.80;99.90;;;;;;4953907;28;99380;-76
2023/03/31 06:45:29;;;;;;;8.82;4.05;;;11.80;99.90;;;;;;4965452;28;98966;-76
2023/03/31 06:47:56;;;;;;;8.10;4.47;;;11.90;99.90;;;;;;4968877;28;98562;-76
2023/03/31 06:50:22;;;;;;;8.30;3.92;;;11.90;99.90;;;;;;4952402;28;98620;-76
2023/03/31 06:52:51;;;;;;;6.53;3.67;;;11.90;99.90;;;;;;4953313;28;100044;-76
2023/03/31 06:55:18;;;;;;;6.53;3.55;;;11.90;99.90;;;;;;4952050;28;102456;-76
2023/03/31 06:57:45;;;;;;;6.55;3.42;;;11.90;99.90;;;;;;4969108;28;98522;-76
2023/03/31 07:00:13;;;;;;;9.18;3.72;;;11.90;99.90;;;;;;4952138;28;98583;-76
2023/03/31 07:02:40;;;;;;;7.90;3.80;;;11.90;99.90;;;;;;4953630;28;99346;-76
2023/03/31 07:05:07;;;;;;;8.27;3.50;;;12.00;99.90;;;;;;4953415;28;99055;-76
2023/03/31 07:07:34;;;;;;;6.65;4.00;;;11.90;99.90;;;;;;4952237;28;98567;-76
2023/03/31 07:10:01;;;;;;;8.57;4.47;;;12.00;99.90;;;;;;4954094;28;97785;-76
2023/03/31 07:12:31;;;;;;;8.27;4.35;;;11.90;99.90;;;;;;4935726;28;101846;-76
2023/03/31 07:14:58;;;;;;;7.88;3.92;;;11.90;99.90;;;;;;4953135;28;98973;-76
2023/03/31 07:17:25;;;;;;;6.45;3.72;;;11.90;99.90;;;;;;4968330;28;99273;-76
2023/03/31 07:19:51;;;;;;;5.60;3.22;;;11.90;99.90;;;;;;4952301;28;98659;-76
2023/03/31 07:22:18;;;;;;;7.35;3.60;;;11.80;99.90;;;;;;4968025;28;102052;-76
2023/03/31 07:24:45;;;;;;;7.90;4.15;;;11.80;99.90;;;;;;4952964;28;98686;-76
2023/03/31 07:27:12;;;;;;;7.80;4.32;;;11.80;99.90;;;;;;4935852;28;98534;-76
2023/03/31 07:29:39;;;;;;;6.28;3.70;;;11.90;99.90;;;;;;4953222;28;98523;-76
2023/03/31 07:32:06;;;;;;;6.18;4.10;;;11.90;99.90;;;;;;4951260;28;99173;-76
2023/03/31 07:34:34;;;;;;;7.78;5.00;;;11.90;99.90;;;;;;4968387;28;99374;-76
2023/03/31 07:37:03;;;;;;;6.38;3.70;;;11.90;99.90;;;;;;4953544;28;98593;-76
2023/03/31 07:39:30;;;;;;;6.68;3.53;;;11.90;99.90;;;;;;4953241;28;98604;-76
2023/03/31 07:41:57;;;;;;;5.50;3.58;;;11.90;99.90;;;;;;4952724;28;99998;-76
2023/03/31 07:44:24;;;;;;;7.15;3.75;;;11.90;99.90;;;;;;4967790;28;99732;-77
2023/03/31 07:46:51;;;;;;;9.27;4.32;;;11.90;99.90;;;;;;4953403;28;98613;-76
2023/03/31 07:49:18;;;;;;;7.93;4.22;;;12.00;99.90;;;;;;4953308;28;98521;-76
2023/03/31 07:51:45;;;;;;;10.30;4.20;;;12.10;99.90;;;;;;4951891;28;100087;-76
2023/03/31 07:54:12;;;;;;;7.45;4.20;;;12.00;99.90;;;;;;4967792;28;102434;-76
2023/03/31 07:56:39;;;;;;;6.65;3.83;;;12.00;99.90;;;;;;4967923;28;98532;-76
2023/03/31 07:59:06;;;;;;;9.18;4.07;;;12.00;99.90;;;;;;4935836;28;97910;-76
2023/03/31 08:01:33;;;;;;;8.70;4.25;;;12.00;99.90;;;;;;4951044;28;101978;-76
2023/03/31 08:04:00;;;;;;;6.55;3.65;;;12.10;99.90;;;;;;4951514;28;99177;-76
2023/03/31 08:06:28;;;;;;;7.90;4.15;;;12.10;99.90;;;;;;4967453;28;99899;-76
2023/03/31 08:08:56;;;;;;;8.07;4.10;;;12.10;99.90;;;;;;4953117;28;98459;-76
2023/03/31 08:11:24;;;;;;;7.32;3.38;;;12.10;99.90;;;;;;4952344;28;99087;-76
2023/03/31 08:13:52;;;;;;;7.30;3.30;;;12.20;99.90;;;;;;4967398;28;101672;-76
2023/03/31 08:16:19;;;;;;;6.47;3.38;;;12.30;99.90;;;;;;4951345;28;98555;-76
2023/03/31 08:18:46;;;;;;;7.75;3.55;;;12.40;99.90;;;;;;4951566;28;98714;-76
2023/03/31 08:21:13;;;;;;;5.35;3.38;;;12.50;99.90;;;;;;4951007;28;102927;-76
2023/03/31 08:23:40;;;;;;;8.23;3.20;;;12.50;99.90;;;;;;4967543;28;98939;-76
2023/03/31 08:26:17;;;;;;;6.28;3.58;;;12.60;99.90;;;;;;4934921;28;98615;-76
2023/03/31 08:28:47;;;;;;;7.63;3.13;;;12.70;99.90;;;;;;4967807;28;99250;-76
2023/03/31 08:31:17;;;;;;;7.15;3.50;;;12.80;99.90;;;;;;4967016;28;102663;-76
2023/03/31 08:33:45;;;;;;;5.03;3.33;;;12.80;99.90;;;;;;4966657;28;99827;-76
2023/03/31 08:36:13;;;;;;;7.25;4.25;;;12.90;99.90;;;;;;4951342;28;98617;-76
2023/03/31 08:38:44;;;;;;;5.75;3.53;;;13.00;99.90;;;;;;4952477;28;98543;-76
2023/03/31 08:41:43;;;;;;;7.28;3.88;;;13.10;99.90;;;;;;4952129;28;99470;-76
2023/03/31 08:44:24;;;;;;;7.40;4.03;;;13.20;99.90;;;;;;4950878;28;100879;-76
2023/03/31 08:46:55;;;;;;;9.07;4.30;;;13.20;99.90;;;;;;4952468;28;98573;-76
2023/03/31 08:49:23;;;;;;;6.38;4.35;;;13.20;99.90;;;;;;4953047;28;97725;-76
2023/03/31 08:52:03;;;;;;;8.02;4.30;;;13.20;99.90;;;;;;4950477;28;101812;-76
2023/03/31 08:54:37;;;;;;;7.88;4.07;;;13.30;99.90;;;;;;4950435;28;101612;-76
2023/03/31 08:57:09;;;;;;;;;;;13.30;99.90;;;;;;4951186;28;99792;-76
2023/03/31 08:59:42;;;;;;;5.68;4.28;;;13.20;99.90;;;;;;4953474;28;98543;-76
2023/03/31 09:02:37;;;;;;;10.00;4.03;;;13.20;99.90;;;;;;4952153;28;99110;-76
2023/03/31 09:05:32;;;;;;;8.00;4.20;;;13.40;99.90;;;;;;4951782;28;99162;-76
2023/03/31 09:08:12;;;;;;;7.78;4.30;;;13.50;99.90;;;;;;4952388;28;98692;-76
2023/03/31 09:10:43;;;;;;;4.00;3.38;;;13.50;99.90;;;;;;4955512;28;98525;-76
2023/03/31 09:13:22;;;;;;;7.78;4.03;;;13.50;99.90;;;;;;4955261;28;99348;-76
2023/03/31 09:16:07;;;;;;;7.35;4.22;;;13.50;99.90;;;;;;4955611;28;99107;-76
2023/03/31 09:18:37;;;;;;;6.30;3.60;;;13.50;99.90;;;;;;4955458;28;98612;-76
2023/03/31 09:21:19;;;;;;;6.90;3.58;;;13.50;99.90;;;;;;4954091;28;98610;-76
2023/03/31 09:24:13;;;;;;;7.50;3.90;;;13.70;99.90;;;;;;4954680;28;100183;-76
2023/03/31 09:26:46;;;;;;;9.95;3.55;;;13.80;99.90;;;;;;4954857;28;99799;-76
2023/03/31 09:29:25;;;;;;;8.93;3.57;;;13.80;99.90;;;;;;4955722;28;99109;-76
2023/03/31 09:31:53;;;;;;;6.15;3.10;;;13.90;99.90;;;;;;4970140;28;98675;-76
2023/03/31 09:34:27;;;;;;;9.10;4.07;;;14.00;99.90;;;;;;4969774;28;99640;-76
2023/03/31 09:36:54;;;;;;;6.85;4.20;;;14.10;99.90;;;;;;4953685;28;98919;-76
2023/03/31 09:39:21;;;;;;;6.88;3.72;;;14.20;99.90;;;;;;4955395;28;98433;-76
2023/03/31 09:41:50;;;;;;;10.70;3.40;;;14.30;99.90;;;;;;4937767;28;97906;-76
2023/03/31 09:44:22;;;;;;;6.03;3.28;;;14.40;99.90;;;;;;4969532;28;102063;-76
2023/03/31 09:46:51;;;;;;;7.03;3.07;;;14.60;99.90;;;;;;4969750;28;98988;-76
2023/03/31 09:49:22;;;;;;;4.93;2.10;;;14.70;99.90;;;;;;4954779;28;99157;-76
2023/03/31 09:52:29;;;;;;;8.00;2.90;;;14.70;99.90;;;;;;4954418;28;98504;-76
2023/03/31 09:55:00;;;;;;;6.78;2.63;;;14.80;99.90;;;;;;4921003;28;102064;-76
2023/03/31 09:57:33;;;;;;;4.00;1.95;;;14.80;99.90;;;;;;4969820;28;99200;-76
2023/03/31 10:00:21;;;;;;;;;;;14.90;99.90;;;;;;4955429;28;98558;-76
2023/03/31 10:02:53;;;;;;;6.45;2.45;;;14.70;99.90;;;;;;4955979;28;98628;-76
2023/03/31 10:05:40;;;;;;;7.30;2.40;;;14.70;99.90;;;;;;4954591;28;100857;-76
2023/03/31 10:08:15;;;;;;;4.10;1.80;;;14.80;99.90;;;;;;4954873;28;99126;-76
2023/03/31 10:11:05;;;;;;;3.75;2.00;;;14.80;99.90;;;;;;4953058;28;98650;-76
2023/03/31 10:14:01;;;;;;;3.47;1.48;;;14.70;99.90;;;;;;4969514;28;98535;-76
2023/03/31 10:16:28;;;;;;;4.97;1.45;;;14.70;99.90;;;;;;4952538;28;102783;-76
2023/03/31 10:19:26;;;;;;;1.92;1.20;;;14.60;99.90;;;;;;4952277;28;102368;-76
2023/03/31 10:22:01;;;;;;;3.13;1.40;;;14.80;99.90;;;;;;4953693;28;98594;-77
2023/03/31 10:24:42;;;;;;;4.22;1.73;;;14.80;99.90;;;;;;4954691;28;98521;-76
2023/03/31 10:27:30;;;;;;;1.98;1.40;;;14.90;99.90;;;;;;4954138;28;99533;-76
2023/03/31 10:30:00;;;;;;;2.42;1.30;;;15.00;99.90;;;;;;4952455;28;106338;-76
2023/03/31 10:32:29;;;;;;;3.38;1.67;;;14.90;99.90;;;;;;4952343;28;98546;-76
2023/03/31 10:34:58;;;;;;;2.67;1.42;;;14.90;99.90;;;;;;4969406;28;98235;-76
2023/03/31 10:37:28;;;;;;;4.55;2.08;;;15.10;99.90;;;;;;4953766;28;99293;-76
2023/03/31 10:40:05;;;;;;;2.22;1.88;;;15.20;99.90;;;;;;4952391;28;100333;-76
2023/03/31 10:42:32;;;;;;;3.45;1.30;;;15.40;99.90;;;;;;4954195;28;99266;-76
2023/03/31 10:45:30;;;;;;;3.38;1.70;;;15.70;99.90;;;;;;4952778;28;98798;-76
2023/03/31 10:48:05;;;;;;;5.00;1.92;;;15.90;99.90;;;;;;4944004;28;99353;-77
2023/03/31 10:50:35;;;;;;;2.90;1.80;;;16.00;99.90;;;;;;4952339;28;99230;-77
2023/03/31 10:53:13;;;;;;;4.22;1.88;;;16.20;99.90;;;;;;4953813;28;98582;-76
2023/03/31 10:56:01;;;;;;;2.95;1.67;;;16.40;99.90;;;;;;4954115;28;98574;-76
2023/03/31 10:58:49;;;;;;;1.85;1.30;;;16.60;99.90;;;;;;4953745;28;99302;-76
2023/03/31 11:02:08;;;;;;;1.73;1.40;;;16.70;99.90;;;;;;4952450;28;106220;-76
2023/03/31 11:04:53;;;;;;;1.80;1.20;;;16.80;99.90;;;;;;4954021;28;98601;-76
2023/03/31 11:07:39;;;;;;;1.75;1.40;;;16.90;99.90;;;;;;4969068;28;98565;-76
2023/03/31 11:10:24;;;;;;;2.88;1.30;;;17.00;99.90;;;;;;4951555;28;102658;-76
2023/03/31 11:12:59;;;;;;;4.13;1.70;;;17.20;99.90;;;;;;4953202;28;100029;-76
2023/03/31 11:15:50;;;;;;;4.85;1.35;;;17.30;99.90;;;;;;4969071;28;99164;-76
2023/03/31 11:18:58;;;;;;;2.50;1.40;;;17.50;99.90;;;;;;4954057;28;99259;-76
2023/03/31 11:21:31;;;;;;;4.38;1.50;;;17.80;99.90;;;;;;4952085;28;99404;-76
2023/03/31 11:24:25;;;;;;;3.67;1.40;;;17.90;99.90;;;;;;4952904;28;99110;-76
2023/03/31 11:26:52;;;;;;;3.38;1.50;;;18.00;99.90;;;;;;4952283;28;98701;-76
2023/03/31 11:29:50;;;;;;;3.67;1.80;;;17.90;99.90;;;;;;4953805;28;97791;-76
2023/03/31 11:32:45;;;;;;;3.22;1.35;;;18.00;99.90;;;;;;4951181;28;102004;-76
2023/03/31 11:35:37;;;;;;;3.53;1.70;;;17.90;99.90;;;;;;4951632;28;100088;-76
2023/03/31 11:38:39;;;;;;;3.60;1.85;;;17.70;99.90;;;;;;4952941;28;99282;-76
2023/03/31 11:41:18;;;;;;;3.22;1.90;;;17.50;99.90;;;;;;4952143;28;98611;-76
2023/03/31 11:43:53;;;;;;;2.50;1.65;;;17.10;99.90;;;;;;4967735;28;102157;-76
2023/03/31 11:46:49;;;;;;;5.32;2.50;;;17.10;99.90;;;;;;4967935;28;101273;-76
2023/03/31 11:49:29;;;;;;;3.90;1.50;;;17.20;99.90;;;;;;4953446;28;99086;-76
2023/03/31 11:52:01;;;;;;;3.22;1.70;;;17.30;99.90;;;;;;4953327;28;98428;-76
2023/03/31 11:54:51;;;;;;;6.32;2.20;;;17.70;99.90;;;;;;4953208;28;99296;-76
2023/03/31 11:57:24;;;;;;;3.03;2.00;;;18.10;99.90;;;;;;4968332;28;99191;-76
2023/03/31 12:00:02;;;;;;;3.45;1.80;;;18.20;99.90;;;;;;4968261;28;99039;-76
2023/03/31 12:02:49;;;;;;;3.13;2.10;;;18.20;99.90;;;;;;4952100;28;98766;-76
2023/03/31 12:05:18;;;;;;;3.97;2.28;;;18.30;99.90;;;;;;4951944;28;99970;-76
2023/03/31 12:07:53;;;;;;;4.68;2.05;;;18.20;99.90;;;;;;4952331;28;109433;-76
2023/03/31 12:10:38;;;;;;;2.58;1.60;;;18.20;99.90;;;;;;4967605;28;98602;-76
2023/03/31 12:13:32;;;;;;;3.28;1.45;;;18.40;99.90;;;;;;4952671;28;98455;-77
2023/03/31 12:16:12;;;;;;;3.35;1.65;;;18.40;99.90;;;;;;4952362;28;99279;-77
2023/03/31 12:19:01;;;;;;;5.10;2.28;;;18.40;99.90;;;;;;4952391;28;99444;-76
2023/03/31 12:21:30;;;;;;;5.22;1.77;;;18.40;99.90;;;;;;4953024;28;98466;-76
2023/03/31 12:23:57;;;;;;;4.05;1.80;;;18.40;99.90;;;;;;4968088;28;98403;-76
2023/03/31 12:26:35;;;;;;;3.90;2.00;;;18.50;99.90;;;;;;4952062;28;99328;-76
2023/03/31 12:29:26;;;;;;;4.50;2.05;;;18.70;99.90;;;;;;4952255;28;99006;-76
2023/03/31 12:31:56;;;;;;;4.60;1.90;;;18.90;99.90;;;;;;4951988;28;99289;-76
2023/03/31 12:34:26;;;;;;;5.03;2.10;;;18.90;99.90;;;;;;4967510;28;98555;-76
2023/03/31 12:37:04;;;;;;;5.28;2.40;;;19.00;99.90;;;;;;4952219;28;101038;-76
2023/03/31 12:39:53;;;;;;;5.03;2.20;;;18.90;99.90;;;;;;4934760;28;101751;-76
2023/03/31 12:42:58;;;;;;;4.97;2.35;;;18.80;99.90;;;;;;4952660;28;98450;-76
2023/03/31 12:45:38;;;;;;;6.68;2.33;;;18.60;99.90;;;;;;4924582;28;98705;-76
2023/03/31 12:48:24;;;;;;;5.80;2.45;;;18.60;99.90;;;;;;4954452;28;99378;-76
2023/03/31 12:51:10;;;;;;;6.18;2.63;;;18.40;99.90;;;;;;4970937;28;101569;-76
2023/03/31 12:54:06;;;;;;;7.80;2.50;;;18.40;99.90;;;;;;4970822;28;98617;-76
2023/03/31 12:57:13;;;;;;;5.47;2.10;;;18.30;99.90;;;;;;4943081;28;98647;-76
2023/03/31 12:59:45;;;;;;;7.00;2.60;;;18.20;99.90;;;;;;4954765;28;100116;-76
2023/03/31 13:02:14;;;;;;;4.05;2.30;;;17.80;99.90;;;;;;4953761;28;100678;-76
2023/03/31 13:04:42;;;;;;;6.85;2.30;;;17.90;99.90;;;;;;4955717;28;98492;-76
2023/03/31 13:07:37;;;;;;;5.10;2.53;;;18.00;99.90;;;;;;4953905;28;98603;-76
2023/03/31 13:10:13;;;;;;;8.65;2.30;;;18.20;99.90;;;;;;4955386;28;99339;-76
2023/03/31 13:12:40;;;;;;;6.28;2.45;;;18.60;99.90;;;;;;4953876;28;101792;-76
2023/03/31 13:15:13;;;;;;;4.00;2.50;;;18.70;99.90;;;;;;4955834;28;98521;-76
2023/03/31 13:17:41;;;;;;;5.10;2.35;;;18.90;99.90;;;;;;4954461;28;97827;-76
2023/03/31 13:20:28;;;;;;;7.53;2.53;;;18.80;99.90;;;;;;4955032;28;99273;-76